createdAt,value
2022-12-13T00:02:40.503Z,1.10
2022-12-13T00:05:15.066Z,0.90
2022-12-13T00:08:10.428Z,1.42
2022-12-13T00:14:41.559Z,0.90
2022-12-13T00:17:09.866Z,1.40
2022-12-13T00:19:45.861Z,1.15
2022-12-13T00:25:05.930Z,1.17
2022-12-13T00:28:00.965Z,1.40
2022-12-13T00:30:50.652Z,1.45
2022-12-13T00:33:25.606Z,1.35
2022-12-13T00:35:54.343Z,1.10
2022-12-13T00:38:22.967Z,1.38
2022-12-13T00:40:53.072Z,0.98
2022-12-13T00:43:21.678Z,1.23
2022-12-13T00:45:58.864Z,1.40
2022-12-13T00:48:27.359Z,1.25
2022-12-13T00:54:09.283Z,0.93
2022-12-13T00:57:16.840Z,1.45
2022-12-13T01:00:38.211Z,1.20
2022-12-13T01:09:59.988Z,1.05
2022-12-13T01:12:41.524Z,1.40
2022-12-13T01:15:10.626Z,1.08
2022-12-13T01:17:39.007Z,1.27
2022-12-13T01:20:10.970Z,1.35
2022-12-13T01:22:39.225Z,2.10
2022-12-13T01:25:09.704Z,1.20
2022-12-13T01:27:38.029Z,1.52
2022-12-13T01:30:06.885Z,1.38
2022-12-13T01:32:35.358Z,1.42
2022-12-13T01:35:03.729Z,1.85
2022-12-13T01:37:37.393Z,1.95
2022-12-13T01:40:16.325Z,1.35
2022-12-13T01:42:45.074Z,1.38
2022-12-13T01:45:32.229Z,1.70
2022-12-13T01:48:11.023Z,1.98
2022-12-13T01:51:06.134Z,1.80
2022-12-13T01:53:47.736Z,1.40
2022-12-13T01:59:43.902Z,1.40
2022-12-13T02:02:15.200Z,1.88
2022-12-13T02:05:05.913Z,1.80
2022-12-13T02:07:36.788Z,1.63
2022-12-13T02:10:07.672Z,1.60
2022-12-13T02:12:38.516Z,1.70
2022-12-13T02:15:26.889Z,1.20
2022-12-13T02:18:17.250Z,1.40
2022-12-13T02:21:08.159Z,2.05
2022-12-13T02:24:11.213Z,1.77
2022-12-13T02:27:02.927Z,1.40
2022-12-13T02:33:12.280Z,1.58
2022-12-13T02:36:21.633Z,1.80
2022-12-13T02:39:09.858Z,1.80
2022-12-13T02:41:58.182Z,1.60
2022-12-13T02:45:09.138Z,1.90
2022-12-13T02:47:42.930Z,1.75
2022-12-13T02:50:14.511Z,2.30
2022-12-13T02:55:17.781Z,2.13
2022-12-13T02:57:49.606Z,2.03
2022-12-13T03:00:20.856Z,1.98
2022-12-13T03:03:10.659Z,2.20
2022-12-13T03:06:02.835Z,1.92
2022-12-13T03:08:44.524Z,1.83
2022-12-13T03:14:06.394Z,1.83
2022-12-13T03:16:55.890Z,1.80
2022-12-13T03:19:24.666Z,1.92
2022-12-13T03:21:53.037Z,2.10
2022-12-13T03:24:22.605Z,1.63
2022-12-13T03:26:52.990Z,1.77
2022-12-13T03:29:23.459Z,2.05
2022-12-13T03:34:22.247Z,1.90
2022-12-13T03:36:54.750Z,2.10
2022-12-13T03:39:24.063Z,1.92
2022-12-13T03:41:52.752Z,2.30
2022-12-13T03:44:21.117Z,2.10
2022-12-13T03:46:49.447Z,2.40
2022-12-13T03:49:17.834Z,2.35
2022-12-13T03:51:46.714Z,2.30
2022-12-13T03:54:14.990Z,2.28
2022-12-13T03:56:43.239Z,2.10
2022-12-13T03:59:11.711Z,1.75
2022-12-13T04:01:40.025Z,3.22
2022-12-13T04:04:09.414Z,1.77
2022-12-13T04:06:37.641Z,2.08
2022-12-13T04:09:05.938Z,2.35
2022-12-13T04:11:52.618Z,2.65
2022-12-13T04:14:23.843Z,2.75
2022-12-13T04:16:53.208Z,2.13
2022-12-13T04:19:24.353Z,2.55
2022-12-13T04:21:54.988Z,3.08
2022-12-13T04:24:31.309Z,2.92
2022-12-13T04:27:01.781Z,2.42
2022-12-13T04:29:33.907Z,2.95
2022-12-13T04:32:04.920Z,2.53
2022-12-13T04:34:37.615Z,2.70
2022-12-13T04:37:10.462Z,2.85
2022-12-13T04:39:38.727Z,2.40
2022-12-13T04:42:16.861Z,2.78
2022-12-13T04:44:46.280Z,2.63
2022-12-13T04:47:14.694Z,3.30
2022-12-13T04:49:42.968Z,3.03
2022-12-13T04:52:12.018Z,3.95
2022-12-13T04:54:55.604Z,3.08
2022-12-13T04:57:24.717Z,3.03
2022-12-13T04:59:56.067Z,3.05
2022-12-13T05:02:33.897Z,3.22
2022-12-13T05:05:03.145Z,3.03
2022-12-13T05:07:31.690Z,2.90
2022-12-13T05:09:59.899Z,3.15
2022-12-13T05:12:28.353Z,3.33
2022-12-13T05:14:56.573Z,3.67
2022-12-13T05:17:25.057Z,3.50
2022-12-13T05:19:56.042Z,3.67
2022-12-13T05:22:24.291Z,3.13
2022-12-13T05:24:52.681Z,3.40
2022-12-13T05:27:25.220Z,3.90
2022-12-13T05:30:04.959Z,3.30
2022-12-13T05:32:44.771Z,3.00
2022-12-13T05:35:23.157Z,3.47
2022-12-13T05:37:57.307Z,3.22
2022-12-13T05:40:27.358Z,3.22
2022-12-13T05:43:01.579Z,3.45
2022-12-13T05:45:32.355Z,2.90
2022-12-13T05:48:01.057Z,3.22
2022-12-13T05:50:29.580Z,3.20
2022-12-13T05:52:57.991Z,2.75
2022-12-13T05:55:26.188Z,3.03
2022-12-13T05:57:54.451Z,3.15
2022-12-13T06:00:33.718Z,3.10
2022-12-13T06:03:03.301Z,3.38
2022-12-13T06:05:32.812Z,3.10
2022-12-13T06:08:04.425Z,3.08
2022-12-13T06:11:10.320Z,3.20
2022-12-13T06:13:44.332Z,3.08
2022-12-13T06:16:22.886Z,2.90
2022-12-13T06:19:02.778Z,3.28
2022-12-13T06:21:43.533Z,2.75
2022-12-13T06:24:19.201Z,2.90
2022-12-13T06:26:47.854Z,2.65
2022-12-13T06:29:25.208Z,2.85
2022-12-13T06:32:01.905Z,2.72
2022-12-13T06:34:34.292Z,3.03
2022-12-13T06:37:04.029Z,3.30
2022-12-13T06:39:33.627Z,2.72
2022-12-13T06:42:04.270Z,3.00
2022-12-13T06:44:32.658Z,2.65
2022-12-13T06:47:11.689Z,3.35
2022-12-13T06:49:43.919Z,2.72
2022-12-13T06:52:13.772Z,2.75
2022-12-13T06:54:42.631Z,2.97
2022-12-13T06:57:12.779Z,2.40
2022-12-13T06:59:43.823Z,3.10
2022-12-13T07:02:25.309Z,2.90
2022-12-13T07:04:55.888Z,2.80
2022-12-13T07:07:25.528Z,2.83
2022-12-13T07:09:55.683Z,2.72
2022-12-13T07:12:24.401Z,3.28
2022-12-13T07:14:52.760Z,2.92
2022-12-13T07:17:33.205Z,3.00
2022-12-13T07:20:10.949Z,2.90
2022-12-13T07:22:45.186Z,3.60
2022-12-13T07:25:28.418Z,2.55
2022-12-13T07:28:03.050Z,3.08
2022-12-13T07:30:41.472Z,2.30
2022-12-13T07:33:10.901Z,2.80
2022-12-13T07:35:39.615Z,2.55
2022-12-13T07:38:09.018Z,2.80
2022-12-13T07:40:38.827Z,2.97
2022-12-13T07:43:07.956Z,2.40
2022-12-13T07:45:37.394Z,2.72
2022-12-13T07:48:06.952Z,2.83
2022-12-13T07:50:37.135Z,2.55
2022-12-13T07:53:10.198Z,2.67
2022-12-13T07:55:39.311Z,2.67
2022-12-13T07:58:09.707Z,2.30
2022-12-13T08:00:39.704Z,2.17
2022-12-13T08:03:13.430Z,2.92
2022-12-13T08:06:03.728Z,2.83
2022-12-13T08:08:32.691Z,2.75
2022-12-13T08:11:13.086Z,2.65
2022-12-13T08:13:42.317Z,2.63
2022-12-13T08:16:27.492Z,2.30
2022-12-13T08:19:04.047Z,2.50
2022-12-13T08:21:58.290Z,2.13
2022-12-13T08:24:29.324Z,2.60
2022-12-13T08:27:03.091Z,2.30
2022-12-13T08:29:36.403Z,1.92
2022-12-13T08:32:11.307Z,2.13
2022-12-13T08:34:40.197Z,2.58
2022-12-13T08:37:08.830Z,2.55
2022-12-13T08:39:39.397Z,2.40
2022-12-13T08:42:16.589Z,2.05
2022-12-13T08:44:51.626Z,2.30
2022-12-13T08:47:22.553Z,2.15
2022-12-13T08:49:52.358Z,2.50
2022-12-13T08:52:23.171Z,2.00
2022-12-13T08:54:51.984Z,2.33
2022-12-13T08:57:20.227Z,1.65
2022-12-13T08:59:48.497Z,2.10
2022-12-13T09:02:17.399Z,1.88
2022-12-13T09:04:46.635Z,1.85
2022-12-13T09:07:15.319Z,2.13
2022-12-13T09:09:43.788Z,2.13
2022-12-13T09:12:30.896Z,2.00
2022-12-13T09:15:01.224Z,1.75
2022-12-13T09:17:36.735Z,2.20
2022-12-13T09:20:10.056Z,2.17
2022-12-13T09:23:02.406Z,1.77
2022-12-13T09:25:36.783Z,1.88
2022-12-13T09:28:10.185Z,1.85
2022-12-13T09:30:41.608Z,2.20
2022-12-13T09:33:27.975Z,2.58
2022-12-13T09:35:58.256Z,2.53
2022-12-13T09:38:29.667Z,2.25
2022-12-13T09:41:00.514Z,2.03
2022-12-13T09:43:42.508Z,1.90
2022-12-13T09:46:27.576Z,1.60
2022-12-13T09:49:05.840Z,2.50
2022-12-13T09:51:47.314Z,1.52
2022-12-13T09:54:22.244Z,1.80
2022-12-13T09:56:52.316Z,1.83
2022-12-13T09:59:29.249Z,1.70
2022-12-13T10:02:03.638Z,1.65
2022-12-13T10:04:32.775Z,1.73
2022-12-13T10:07:01.038Z,1.55
2022-12-13T10:09:29.336Z,1.98
2022-12-13T10:11:57.609Z,1.70
2022-12-13T10:14:44.806Z,1.70
2022-12-13T10:17:20.264Z,2.85
2022-12-13T10:19:53.480Z,1.42
2022-12-13T10:22:26.052Z,1.50
2022-12-13T10:25:04.753Z,1.63
2022-12-13T10:27:41.238Z,1.50
2022-12-13T10:30:14.042Z,1.42
2022-12-13T10:33:06.097Z,1.70
2022-12-13T10:35:43.347Z,1.42
2022-12-13T10:38:17.781Z,1.50
2022-12-13T10:40:46.551Z,1.35
2022-12-13T10:43:23.336Z,1.55
2022-12-13T10:46:04.056Z,1.30
2022-12-13T10:48:38.359Z,1.23
2022-12-13T10:51:16.369Z,1.40
2022-12-13T10:53:51.221Z,1.45
2022-12-13T10:56:22.784Z,2.47
2022-12-13T10:59:15.009Z,1.15
2022-12-13T11:01:45.777Z,1.30
2022-12-13T11:04:30.132Z,1.38
2022-12-13T11:07:01.482Z,1.52
2022-12-13T11:09:39.176Z,1.52
2022-12-13T11:12:17.328Z,1.48
2022-12-13T11:15:01.932Z,1.23
2022-12-13T11:17:33.237Z,1.30
2022-12-13T11:20:08.066Z,1.17
2022-12-13T11:22:39.083Z,1.55
2022-12-13T11:25:18.947Z,1.67
2022-12-13T11:28:31.643Z,1.33
2022-12-13T11:31:23.855Z,1.30
2022-12-13T11:34:10.000Z,0.95
2022-12-13T11:36:59.351Z,1.17
2022-12-13T11:39:34.213Z,1.10
2022-12-13T11:42:28.723Z,1.30
2022-12-13T11:45:30.754Z,1.83
2022-12-13T11:50:47.343Z,1.25
2022-12-13T11:53:24.123Z,1.20
2022-12-13T11:55:56.706Z,1.33
2022-12-13T11:59:03.957Z,1.20
2022-12-13T12:01:54.197Z,1.10
2022-12-13T12:04:36.291Z,0.98
2022-12-13T12:07:34.439Z,1.38
2022-12-13T12:10:15.802Z,1.20
2022-12-13T12:12:49.933Z,1.20
2022-12-13T12:15:29.563Z,1.48
2022-12-13T12:17:58.209Z,1.42
2022-12-13T12:20:45.072Z,1.35
2022-12-13T12:23:52.760Z,0.95
2022-12-13T12:26:32.565Z,1.23
2022-12-13T12:29:04.115Z,1.30
2022-12-13T12:31:50.565Z,1.15
2022-12-13T12:34:38.093Z,1.00
2022-12-13T12:37:36.626Z,1.38
2022-12-13T12:40:17.036Z,1.00
2022-12-13T12:43:27.128Z,1.15
2022-12-13T12:45:56.975Z,1.30
2022-12-13T12:49:01.372Z,1.27
2022-12-13T12:51:34.740Z,1.10
2022-12-13T12:54:32.949Z,1.27
2022-12-13T12:57:15.573Z,1.20
2022-12-13T12:59:50.213Z,1.30
2022-12-13T13:02:34.556Z,1.88
2022-12-13T13:05:22.884Z,1.63
2022-12-13T13:07:59.776Z,1.55
2022-12-13T13:10:28.790Z,1.50
2022-12-13T13:13:11.589Z,1.65
2022-12-13T13:15:41.091Z,1.25
2022-12-13T13:18:47.909Z,1.30
2022-12-13T13:21:26.581Z,1.10
2022-12-13T13:24:10.185Z,1.33
2022-12-13T13:26:44.439Z,0.88
2022-12-13T13:29:27.228Z,1.42
2022-12-13T13:32:06.068Z,1.20
2022-12-13T13:34:41.388Z,1.00
2022-12-13T13:37:29.209Z,1.20
2022-12-13T13:39:59.627Z,0.80
2022-12-13T13:42:30.250Z,1.00
2022-12-13T13:45:21.390Z,1.10
2022-12-13T13:48:14.492Z,0.93
2022-12-13T13:51:20.396Z,0.80
2022-12-13T13:54:13.425Z,0.88
2022-12-13T13:57:06.363Z,0.80
2022-12-13T13:59:58.782Z,0.95
2022-12-13T14:02:32.856Z,1.10
2022-12-13T14:05:16.455Z,1.30
2022-12-13T14:08:03.584Z,1.00
2022-12-13T14:10:52.241Z,0.98
2022-12-13T14:13:50.623Z,0.95
2022-12-13T14:16:47.790Z,1.38
2022-12-13T14:19:37.906Z,1.15
2022-12-13T14:22:31.389Z,1.20
2022-12-13T14:25:40.614Z,0.98
2022-12-13T14:28:27.533Z,1.20
2022-12-13T14:30:58.306Z,1.10
2022-12-13T14:33:28.216Z,0.80
2022-12-13T14:36:05.180Z,0.93
2022-12-13T14:38:33.706Z,1.10
2022-12-13T14:41:04.126Z,1.30
2022-12-13T14:43:34.719Z,1.00
2022-12-13T14:46:08.181Z,1.10
2022-12-13T14:48:54.434Z,1.20
2022-12-13T14:51:40.551Z,1.85
2022-12-13T14:54:24.028Z,1.20
2022-12-13T14:57:02.740Z,1.20
2022-12-13T14:59:31.859Z,1.25
2022-12-13T15:02:06.151Z,1.08
2022-12-13T15:04:36.979Z,1.50
2022-12-13T15:07:37.088Z,1.30
2022-12-13T15:10:21.239Z,1.05
2022-12-13T15:12:54.859Z,1.30
2022-12-13T15:15:36.354Z,1.85
2022-12-13T15:18:19.488Z,0.95
2022-12-13T15:20:49.383Z,1.70
2022-12-13T15:23:23.401Z,1.58
2022-12-13T15:26:00.238Z,0.80
2022-12-13T15:28:35.465Z,0.98
2022-12-13T15:31:07.052Z,0.80
2022-12-13T15:36:14.161Z,1.20
2022-12-13T15:38:50.160Z,1.60
2022-12-13T15:41:21.072Z,1.10
2022-12-13T15:44:04.355Z,1.50
2022-12-13T15:46:38.831Z,1.52
2022-12-13T15:49:37.184Z,1.50
2022-12-13T15:52:27.414Z,1.40
2022-12-13T15:55:08.199Z,1.60
2022-12-13T15:57:50.446Z,1.40
2022-12-13T16:00:18.585Z,1.58
2022-12-13T16:03:17.235Z,1.67
2022-12-13T16:05:55.871Z,1.50
2022-12-13T16:08:38.243Z,1.38
2022-12-13T16:11:09.002Z,1.17
2022-12-13T16:13:39.199Z,1.42
2022-12-13T16:16:30.974Z,1.17
2022-12-13T16:19:01.453Z,1.27
2022-12-13T16:21:31.107Z,1.20
2022-12-13T16:23:59.290Z,1.13
2022-12-13T16:26:30.416Z,1.30
2022-12-13T16:29:00.271Z,0.95
2022-12-13T16:31:36.486Z,1.30
2022-12-13T16:34:06.150Z,1.05
2022-12-13T16:36:34.720Z,1.40
2022-12-13T16:39:03.236Z,1.30
2022-12-13T16:41:32.100Z,1.45
2022-12-13T16:44:03.363Z,1.35
2022-12-13T16:47:13.038Z,1.17
2022-12-13T16:49:30.786Z,1.55
2022-12-13T16:51:59.253Z,1.80
2022-12-13T16:54:27.757Z,1.30
2022-12-13T16:56:56.107Z,1.40
2022-12-13T16:59:26.127Z,1.20
2022-12-13T17:01:55.185Z,1.52
2022-12-13T17:04:25.577Z,1.30
2022-12-13T17:06:55.469Z,1.27
2022-12-13T17:09:25.966Z,1.17
2022-12-13T17:11:54.309Z,1.25
2022-12-13T17:14:22.601Z,1.13
2022-12-13T17:16:51.048Z,1.23
2022-12-13T17:19:19.396Z,1.23
2022-12-13T17:21:47.705Z,1.10
2022-12-13T17:24:16.334Z,0.90
2022-12-13T17:26:53.809Z,1.00
2022-12-13T17:29:22.606Z,1.77
2022-12-13T17:31:50.899Z,1.20
2022-12-13T17:34:19.151Z,1.50
2022-12-13T17:36:47.562Z,1.85
2022-12-13T17:39:15.837Z,2.38
2022-12-13T17:41:44.174Z,2.35
2022-12-13T17:44:23.154Z,2.03
2022-12-13T17:46:54.862Z,2.05
2022-12-13T17:49:24.865Z,2.15
2022-12-13T17:51:55.164Z,3.03
2022-12-13T17:54:27.133Z,2.00
2022-12-13T17:56:55.635Z,2.22
2022-12-13T17:59:24.339Z,2.72
2022-12-13T18:01:53.015Z,2.60
2022-12-13T18:04:22.439Z,2.40
2022-12-13T18:06:53.274Z,2.58
2022-12-13T18:09:22.291Z,2.30
2022-12-13T18:11:50.618Z,2.15
2022-12-13T18:14:18.951Z,2.70
2022-12-13T18:16:47.700Z,2.60
2022-12-13T18:19:16.083Z,3.08
2022-12-13T18:21:44.691Z,2.88
2022-12-13T18:24:13.723Z,2.90
2022-12-13T18:26:41.982Z,2.53
2022-12-13T18:29:10.475Z,3.25
2022-12-13T18:31:39.047Z,2.85
2022-12-13T18:34:07.479Z,3.13
2022-12-13T18:36:36.322Z,2.85
2022-12-13T18:39:05.328Z,2.70
2022-12-13T18:41:33.960Z,3.13
2022-12-13T18:44:07.553Z,2.83
2022-12-13T18:46:37.689Z,2.75
2022-12-13T18:49:07.523Z,3.22
2022-12-13T18:51:36.122Z,2.83
2022-12-13T18:54:04.592Z,2.47
2022-12-13T18:56:32.866Z,2.67
2022-12-13T18:59:01.113Z,2.40
2022-12-13T19:01:29.527Z,2.47
2022-12-13T19:03:57.993Z,2.80
2022-12-13T19:06:29.068Z,3.00
2022-12-13T19:08:59.336Z,2.33
2022-12-13T19:11:29.305Z,3.05
2022-12-13T19:13:58.019Z,2.42
2022-12-13T19:16:27.729Z,2.53
2022-12-13T19:18:58.975Z,2.30
2022-12-13T19:21:28.223Z,3.15
2022-12-13T19:23:58.507Z,3.13
2022-12-13T19:26:28.985Z,2.80
2022-12-13T19:28:59.427Z,2.87
2022-12-13T19:31:31.588Z,2.83
2022-12-13T19:34:02.609Z,3.13
2022-12-13T19:36:32.655Z,2.90
2022-12-13T19:39:00.968Z,2.35
2022-12-13T19:41:30.595Z,3.20
2022-12-13T19:43:59.303Z,3.03
2022-12-13T19:46:28.059Z,2.88
2022-12-13T19:48:56.415Z,3.47
2022-12-13T19:51:24.854Z,3.50
2022-12-13T19:53:53.187Z,2.85
2022-12-13T19:56:22.763Z,2.92
2022-12-13T19:58:52.233Z,2.75
2022-12-13T20:01:20.601Z,2.50
2022-12-13T20:03:49.637Z,2.40
2022-12-13T20:06:21.165Z,2.95
2022-12-13T20:08:51.145Z,2.22
2022-12-13T20:11:24.430Z,2.42
2022-12-13T20:13:55.896Z,2.88
2022-12-13T20:16:27.797Z,2.33
2022-12-13T20:19:02.482Z,2.22
2022-12-13T20:21:31.322Z,1.90
2022-12-13T20:24:00.056Z,1.75
2022-12-13T20:26:30.493Z,2.03
2022-12-13T20:28:59.184Z,1.53
2022-12-13T20:31:35.921Z,1.90
2022-12-13T20:34:07.547Z,2.13
2022-12-13T20:36:35.857Z,1.48
2022-12-13T20:39:06.367Z,1.83
2022-12-13T20:41:37.017Z,1.80
2022-12-13T20:44:07.843Z,2.07
2022-12-13T20:46:36.436Z,1.67
2022-12-13T20:49:06.806Z,1.88
2022-12-13T20:51:36.459Z,1.80
2022-12-13T20:54:05.545Z,1.75
2022-12-13T20:56:36.487Z,2.10
2022-12-13T20:59:06.952Z,1.75
2022-12-13T21:01:38.821Z,1.87
2022-12-13T21:04:08.264Z,2.42
2022-12-13T21:06:39.508Z,1.42
2022-12-13T21:09:10.511Z,1.80
2022-12-13T21:11:46.461Z,2.05
2022-12-13T21:14:22.469Z,2.00
2022-12-13T21:16:58.806Z,1.88
2022-12-13T21:19:39.567Z,1.92
2022-12-13T21:22:08.892Z,1.98
2022-12-13T21:24:37.177Z,1.92
2022-12-13T21:27:05.456Z,2.03
2022-12-13T21:29:33.665Z,2.40
2022-12-13T21:32:02.082Z,1.80
2022-12-13T21:34:30.891Z,2.15
2022-12-13T21:36:59.275Z,1.90
2022-12-13T21:39:31.736Z,2.28
2022-12-13T21:42:00.644Z,1.92
2022-12-13T21:44:29.316Z,2.30
2022-12-13T21:47:13.592Z,2.40
2022-12-13T21:49:48.740Z,2.53
2022-12-13T21:52:17.482Z,2.45
2022-12-13T21:54:45.770Z,2.47
2022-12-13T21:57:32.962Z,2.30
2022-12-13T22:00:01.277Z,2.22
2022-12-13T22:02:29.629Z,2.35
2022-12-13T22:04:59.834Z,2.20
2022-12-13T22:07:30.855Z,2.90
2022-12-13T22:10:01.002Z,2.30
2022-12-13T22:12:40.692Z,2.90
2022-12-13T22:15:11.558Z,2.60
2022-12-13T22:17:40.755Z,2.55
2022-12-13T22:20:15.017Z,2.50
2022-12-13T22:22:49.381Z,2.08
2022-12-13T22:25:17.701Z,2.03
2022-12-13T22:27:45.944Z,2.55
2022-12-13T22:30:14.873Z,2.20
2022-12-13T22:32:45.184Z,2.05
2022-12-13T22:35:14.908Z,1.65
2022-12-13T22:37:43.258Z,1.60
2022-12-13T22:40:12.088Z,1.42
2022-12-13T22:42:43.734Z,1.38
2022-12-13T22:45:16.817Z,1.20
2022-12-13T22:47:45.083Z,1.48
2022-12-13T22:50:13.340Z,0.82
2022-12-13T22:52:42.025Z,0.70
2022-12-13T22:55:10.814Z,0.80
2022-12-13T22:57:39.270Z,0.75
2022-12-13T23:00:11.016Z,0.85
2022-12-13T23:02:39.395Z,0.60
2022-12-13T23:05:07.856Z,0.50
2022-12-13T23:07:39.744Z,0.70
2022-12-13T23:10:44.431Z,0.60
2022-12-13T23:13:15.484Z,1.10
2022-12-13T23:15:49.183Z,1.00
2022-12-13T23:18:17.862Z,1.20
2022-12-13T23:20:50.301Z,2.15
2022-12-13T23:23:18.621Z,1.98
2022-12-13T23:25:49.075Z,2.10
2022-12-13T23:28:17.516Z,2.43
2022-12-13T23:30:45.991Z,2.97
2022-12-13T23:33:14.274Z,2.47
2022-12-13T23:35:44.566Z,3.08
2022-12-13T23:38:12.979Z,1.98
2022-12-13T23:40:41.414Z,1.75
2022-12-13T23:43:10.419Z,1.70
2022-12-13T23:45:41.970Z,2.03
2022-12-13T23:48:13.231Z,2.22
2022-12-13T23:50:41.909Z,1.25
2022-12-13T23:53:10.202Z,0.98
2022-12-13T23:55:42.023Z,1.25
2022-12-13T23:58:10.365Z,1.40
